Time;durP1;ratioP1;P1;durP2;ratioP2;P2;SDS_P1;SDS_P2;PMS_P1;PMS_P2;Temp;Humidity;BMP_temperature;BMP_pressure;BME280_temperature;BME280_humidity;BME280_pressure;Samples;Min_cycle;Max_cycle;Signal;HPM_P1;HPM_P2
2022/01/09 00:01:57;;;;;;;2.10;0.93;;;2.60;99.90;;;3.36;100.00;95758.59;4990710;28;20528;-90
2022/01/09 00:04:27;;;;;;;0.87;0.87;;;2.60;99.90;;;3.35;100.00;95757.00;4991285;28;20544;-91
2022/01/09 00:06:57;;;;;;;0.93;0.83;;;2.60;99.90;;;3.37;100.00;95754.19;4994200;28;20479;-89
2022/01/09 00:09:31;;;;;;;1.23;0.90;;;2.70;99.90;;;3.35;100.00;95751.03;4983195;28;20488;-89
2022/01/09 00:12:02;;;;;;;0.83;0.80;;;2.60;99.90;;;3.36;100.00;95747.47;4990174;28;21032;-89
2022/01/09 00:14:32;;;;;;;1.70;1.00;;;2.60;99.90;;;3.37;100.00;95742.09;4992081;28;21064;-90
2022/01/09 00:17:03;;;;;;;0.80;0.80;;;2.70;99.90;;;3.35;100.00;95738.13;4990066;28;20918;-90
2022/01/09 00:19:33;;;;;;;1.63;1.13;;;2.60;99.90;;;3.32;100.00;95736.75;4989625;28;20466;-89
2022/01/09 00:22:04;;;;;;;0.87;0.87;;;2.60;99.90;;;3.36;100.00;95731.97;4976154;28;20993;-89
2022/01/09 00:24:34;;;;;;;1.53;1.43;;;2.60;99.90;;;3.32;100.00;95725.59;4990573;28;20459;-90
2022/01/09 00:27:07;;;;;;;3.03;2.00;;;2.50;99.90;;;3.32;100.00;95721.25;4989660;28;20560;-89
2022/01/09 00:29:37;;;;;;;2.80;1.90;;;2.60;99.90;;;3.34;100.00;95718.44;4989623;28;20547;-89
2022/01/09 00:32:08;;;;;;;1.60;1.50;;;2.60;99.90;;;3.36;100.00;95717.28;4990013;28;20507;-91
2022/01/09 00:34:38;;;;;;;1.57;1.47;;;2.70;99.90;;;3.37;100.00;95712.88;4990097;28;20969;-90
2022/01/09 00:37:08;;;;;;;1.43;1.33;;;2.60;99.90;;;3.37;100.00;95707.72;4989511;28;21070;-89
2022/01/09 00:39:40;;;;;;;1.27;1.03;;;2.60;99.90;;;3.40;100.00;95702.94;4990142;28;20480;-90
2022/01/09 00:42:11;;;;;;;1.30;1.20;;;2.80;99.90;;;3.42;100.00;95706.13;4988795;28;20564;-89
2022/01/09 00:44:40;;;;;;;3.37;2.43;;;2.70;99.90;;;3.44;100.00;95704.13;4986404;28;20518;-88
2022/01/09 00:47:11;;;;;;;1.50;1.40;;;2.80;99.90;;;3.44;100.00;95698.16;4989564;28;20479;-89
2022/01/09 00:49:41;;;;;;;2.17;1.97;;;2.80;99.90;;;3.45;100.00;95699.75;4990254;28;20970;-89
2022/01/09 00:52:11;;;;;;;2.03;1.30;;;2.80;99.90;;;3.43;100.00;95699.97;4987523;28;20456;-89
2022/01/09 00:54:42;;;;;;;1.70;1.60;;;2.70;99.90;;;3.46;100.00;95691.03;4988686;28;20468;-90
2022/01/09 00:57:12;;;;;;;3.53;1.90;;;2.80;99.90;;;3.45;100.00;95689.44;4987841;28;20491;-89
2022/01/09 00:59:42;;;;;;;2.30;1.50;;;2.70;99.90;;;3.45;100.00;95689.44;4989500;28;20487;-89
2022/01/09 01:02:12;;;;;;;1.60;1.50;;;2.70;99.90;;;3.47;100.00;95688.22;4991359;28;20526;-89
2022/01/09 01:04:42;;;;;;;1.87;1.10;;;2.80;99.90;;;3.51;100.00;95691.22;4988087;28;20534;-91
2022/01/09 01:07:13;;;;;;;1.20;1.00;;;2.80;99.90;;;3.50;100.00;95693.03;4984706;28;20477;-90
2022/01/09 01:09:45;;;;;;;1.03;1.00;;;2.90;99.90;;;3.53;100.00;95686.66;4997247;28;20554;-90
2022/01/09 01:12:15;;;;;;;1.00;0.90;;;3.00;99.90;;;3.58;100.00;95693.78;4990264;28;21021;-88
2022/01/09 01:14:46;;;;;;;0.70;0.70;;;2.90;99.90;;;3.61;100.00;95688.22;4988138;28;20514;-88
2022/01/09 01:17:16;;;;;;;2.23;1.00;;;3.00;99.90;;;3.64;100.00;95690.41;4991549;28;20496;-90
2022/01/09 01:19:47;;;;;;;0.80;0.80;;;3.00;99.90;;;3.64;100.00;95690.41;4984903;28;20811;-89
2022/01/09 01:22:33;;;;;;;0.90;0.90;;;3.10;99.90;;;3.66;100.00;95688.41;4988612;28;20498;-89
2022/01/09 01:25:06;;;;;;;0.80;0.80;;;3.10;99.90;;;3.68;100.00;95684.63;4986120;28;21034;-89
2022/01/09 01:27:35;;;;;;;1.00;0.90;;;3.10;99.90;;;3.71;100.00;95688.59;4985040;28;20580;-90
2022/01/09 01:30:11;;;;;;;0.80;0.70;;;3.20;99.90;;;3.74;100.00;95693.38;4984843;28;20464;-89
2022/01/09 01:32:42;;;;;;;0.83;0.83;;;3.30;99.90;;;3.74;100.00;95694.16;4985592;28;20468;-89
2022/01/09 01:35:14;;;;;;;1.13;0.90;;;3.20;99.90;;;3.77;100.00;95693.75;4989219;28;20565;-90
2022/01/09 01:37:45;;;;;;;1.00;0.83;;;3.30;99.90;;;3.78;100.00;95703.09;4988139;28;20485;-89
2022/01/09 01:40:19;;;;;;;1.20;0.77;;;3.30;99.90;;;3.80;100.00;95708.06;4993932;28;20491;-90
2022/01/09 01:42:49;;;;;;;0.90;0.80;;;3.30;99.90;;;3.83;100.00;95723.94;4986038;28;20865;-91
2022/01/09 01:45:20;;;;;;;0.90;0.90;;;3.30;99.90;;;3.82;100.00;95721.56;4986394;28;20559;-89
2022/01/09 01:47:50;;;;;;;2.10;1.17;;;3.40;99.90;;;3.85;100.00;95723.75;4986423;28;20492;-89
2022/01/09 01:50:20;;;;;;;1.00;1.00;;;3.30;99.90;;;3.85;100.00;95728.94;4989241;28;21919;-89
2022/01/09 01:52:54;;;;;;;1.70;1.00;;;3.40;99.90;;;3.85;100.00;95726.34;4983847;28;20463;-89
2022/01/09 01:55:25;;;;;;;1.17;1.00;;;3.40;99.90;;;3.86;100.00;95738.25;4988950;28;20815;-89
2022/01/09 01:57:56;;;;;;;0.70;0.70;;;3.40;99.90;;;3.90;100.00;95734.28;4988324;28;20546;-90
2022/01/09 02:00:27;;;;;;;0.90;0.90;;;3.40;99.90;;;3.88;100.00;95747.41;4987546;28;20474;-89
2022/01/09 02:02:57;;;;;;;1.10;1.00;;;3.40;99.90;;;3.89;100.00;95748.19;4988316;28;20524;-89
2022/01/09 02:05:28;;;;;;;5.53;1.20;;;3.40;99.90;;;3.91;100.00;95747.00;4984734;28;21039;-90
2022/01/09 02:08:00;;;;;;;1.07;0.97;;;3.40;99.90;;;3.91;100.00;95744.41;4984728;28;20481;-89
2022/01/09 02:10:31;;;;;;;1.30;1.20;;;3.40;99.90;;;3.92;100.00;95755.56;4985366;28;20553;-88
2022/01/09 02:13:01;;;;;;;1.70;0.97;;;3.30;99.90;;;3.93;100.00;95757.13;4991412;28;20485;-89
2022/01/09 02:15:35;;;;;;;1.10;1.00;;;3.40;99.90;;;3.95;100.00;95763.72;4987636;28;20517;-87
2022/01/09 02:18:09;;;;;;;1.30;1.20;;;3.40;99.90;;;3.98;100.00;95778.00;4986523;28;20483;-89
2022/01/09 02:20:42;;;;;;;1.30;0.93;;;3.40;99.90;;;3.98;100.00;95778.81;4987973;28;20833;-89
2022/01/09 02:23:14;;;;;;;1.67;0.87;;;3.40;99.90;;;4.00;100.00;95794.09;4993529;28;20848;-88
2022/01/09 02:25:47;;;;;;;0.90;0.90;;;3.50;99.90;;;4.02;100.00;95792.94;4991045;28;20511;-89
2022/01/09 02:28:18;;;;;;;0.80;0.80;;;3.40;99.90;;;4.04;100.00;95803.06;4991197;28;20477;-88
2022/01/09 02:30:50;;;;;;;1.20;1.10;;;3.40;99.90;;;4.04;100.00;95808.22;4992560;28;20475;-89
2022/01/09 02:33:21;;;;;;;1.10;0.80;;;3.40;99.90;;;4.03;100.00;95811.78;4993517;28;20469;-89
2022/01/09 02:35:55;;;;;;;0.70;0.70;;;3.40;99.90;;;4.02;100.00;95823.94;4994759;28;21234;-89
2022/01/09 02:38:25;;;;;;;0.80;0.80;;;3.30;99.90;;;4.03;100.00;95832.47;4989824;28;20492;-90
2022/01/09 02:40:56;;;;;;;0.90;0.70;;;3.40;99.90;;;4.03;100.00;95835.06;4984750;28;20527;-88
2022/01/09 02:43:27;;;;;;;0.60;0.60;;;3.40;99.90;;;4.05;100.00;95844.22;4978137;28;20495;-88
2022/01/09 02:46:05;;;;;;;0.70;0.70;;;3.50;99.90;;;4.06;100.00;95852.78;4982446;28;20572;-89
2022/01/09 02:48:37;;;;;;;0.60;0.60;;;3.50;99.90;;;4.07;100.00;95855.16;4999877;28;20472;-89
2022/01/09 02:51:12;;;;;;;0.60;0.60;;;3.60;99.90;;;4.10;100.00;95858.31;4990055;28;20464;-88
2022/01/09 02:53:45;;;;;;;0.60;0.60;;;3.60;99.90;;;4.13;100.00;95863.91;4997768;28;20467;-89
2022/01/09 02:56:15;;;;;;;0.60;0.60;;;3.60;99.90;;;4.15;100.00;95877.44;4982351;28;20513;-89
2022/01/09 02:58:46;;;;;;;0.80;0.80;;;3.70;99.90;;;4.17;100.00;95885.78;4988996;28;20595;-88
2022/01/09 03:01:18;;;;;;;0.60;0.60;;;3.70;99.90;;;4.19;100.00;95894.16;4989469;28;20493;-88
2022/01/09 03:03:47;;;;;;;1.27;0.80;;;3.80;99.90;;;4.19;100.00;95903.69;4988852;28;20475;-90
2022/01/09 03:06:18;;;;;;;0.70;0.60;;;3.70;99.90;;;4.19;100.00;95914.84;4988388;28;20497;-89
2022/01/09 03:08:49;;;;;;;0.60;0.60;;;3.80;99.90;;;4.16;100.00;95915.25;4992180;28;20453;-88
2022/01/09 03:11:19;;;;;;;0.60;0.60;;;3.80;99.90;;;4.21;100.00;95923.19;4987263;28;20492;-89
2022/01/09 03:13:50;;;;;;;0.87;0.67;;;3.80;99.90;;;4.18;100.00;95930.53;4987767;28;20493;-90
2022/01/09 03:16:21;;;;;;;0.70;0.70;;;3.80;99.90;;;4.19;100.00;95932.94;4994227;28;20465;-91
2022/01/09 03:18:52;;;;;;;0.80;0.70;;;3.80;99.90;;;4.21;100.00;95933.53;4989347;28;20554;-90
2022/01/09 03:21:24;;;;;;;0.60;0.60;;;3.80;99.90;;;4.16;100.00;95956.63;4988398;28;20477;-90
2022/01/09 03:23:54;;;;;;;0.70;0.70;;;3.70;99.90;;;4.10;100.00;95954.81;4990721;28;20466;-90
2022/01/09 03:26:24;;;;;;;0.70;0.70;;;3.60;99.90;;;4.12;100.00;95963.19;4985094;28;20502;-90
2022/01/09 03:28:54;;;;;;;0.93;0.70;;;3.70;99.90;;;4.12;100.00;95978.69;4993544;28;20461;-89
2022/01/09 03:31:24;;;;;;;0.60;0.60;;;3.70;99.90;;;4.11;100.00;95990.03;4990629;28;20472;-90
2022/01/09 03:33:56;;;;;;;0.90;0.90;;;3.70;99.90;;;4.10;100.00;95988.41;4985845;28;21278;-90
2022/01/09 03:36:29;;;;;;;1.13;0.70;;;3.60;99.90;;;4.10;100.00;95997.97;4988695;28;20469;-91
2022/01/09 03:38:59;;;;;;;0.70;0.60;;;3.60;99.90;;;4.09;100.00;96006.72;4991115;28;20491;-91
2022/01/09 03:41:30;;;;;;;0.70;0.70;;;3.70;99.90;;;4.11;100.00;96017.66;4988120;28;20849;-89
2022/01/09 03:44:00;;;;;;;0.70;0.60;;;3.60;99.90;;;4.13;100.00;96019.06;4990564;28;20541;-91
2022/01/09 03:46:31;;;;;;;0.70;0.70;;;3.70;99.90;;;4.08;100.00;96031.78;4985381;28;20462;-90
2022/01/09 03:49:01;;;;;;;0.60;0.60;;;3.60;99.90;;;4.03;100.00;96024.63;4992009;28;20467;-92
2022/01/09 03:51:37;;;;;;;0.70;0.60;;;3.60;99.90;;;4.01;100.00;96038.72;4987623;28;20474;-90
2022/01/09 03:54:08;;;;;;;0.60;0.60;;;3.50;99.90;;;3.96;100.00;96052.25;4989877;28;20462;-90
2022/01/09 03:56:38;;;;;;;0.60;0.60;;;3.50;99.90;;;3.96;100.00;96061.78;4985920;28;20494;-90
2022/01/09 03:59:09;;;;;;;0.73;0.70;;;3.40;99.90;;;3.97;100.00;96061.59;4984488;28;20545;-89
2022/01/09 04:01:39;;;;;;;0.60;0.60;;;3.50;99.90;;;3.98;100.00;96077.91;4989905;28;20527;-90
2022/01/09 04:04:09;;;;;;;0.70;0.70;;;3.50;99.90;;;3.93;100.00;96080.28;4990915;28;20500;-91
2022/01/09 04:06:49;;;;;;;0.90;0.70;;;3.40;99.90;;;3.92;100.00;96089.81;4987682;28;20477;-91
2022/01/09 04:09:26;;;;;;;0.90;0.80;;;3.40;99.90;;;3.94;100.00;96092.22;4987605;28;20907;-90
2022/01/09 04:12:03;;;;;;;0.70;0.70;;;3.50;99.90;;;3.92;100.00;96094.97;4986835;28;20528;-91
2022/01/09 04:14:33;;;;;;;1.20;0.90;;;3.50;99.90;;;3.92;100.00;96125.22;4988920;28;20487;-89
2022/01/09 04:17:11;;;;;;;1.67;0.80;;;3.40;99.90;;;3.95;100.00;96124.84;4973184;28;20502;-90
2022/01/09 04:19:42;;;;;;;0.67;0.67;;;3.40;99.90;;;3.97;100.00;96128.81;4986065;28;20506;-90
2022/01/09 04:22:14;;;;;;;1.47;0.80;;;3.50;99.90;;;3.99;100.00;96126.06;4992042;28;20489;-90
2022/01/09 04:24:45;;;;;;;0.60;0.60;;;3.50;99.90;;;3.93;100.00;96137.94;4991418;28;20545;-89
2022/01/09 04:27:16;;;;;;;0.60;0.60;;;3.40;99.90;;;3.94;100.00;96131.78;4988061;28;20491;-90
2022/01/09 04:29:47;;;;;;;0.70;0.60;;;3.40;99.90;;;3.97;100.00;96139.16;4982793;28;20469;-90
2022/01/09 04:32:17;;;;;;;0.70;0.63;;;3.50;99.90;;;3.99;100.00;96141.56;4981951;28;20468;-92
2022/01/09 04:34:46;;;;;;;0.70;0.70;;;3.50;99.90;;;4.00;100.00;96150.91;4984798;28;20490;-92
2022/01/09 04:37:18;;;;;;;0.60;0.60;;;3.40;99.90;;;3.96;100.00;96158.25;4992149;28;20474;-91
2022/01/09 04:39:50;;;;;;;0.70;0.70;;;3.40;99.90;;;3.97;100.00;96165.00;4988342;28;20986;-90
2022/01/09 04:42:24;;;;;;;0.60;0.60;;;3.40;99.90;;;4.00;100.00;96179.34;4992174;28;20469;-90
2022/01/09 04:44:55;;;;;;;1.90;0.80;;;3.40;99.90;;;4.00;100.00;96182.72;4981856;28;21067;-90
2022/01/09 04:47:25;;;;;;;1.03;0.93;;;3.40;99.90;;;3.99;100.00;96185.53;4991435;28;20982;-92
2022/01/09 04:49:55;;;;;;;2.93;1.00;;;3.40;99.90;;;4.01;100.00;96197.25;4985572;28;20549;-90
2022/01/09 04:52:33;;;;;;;1.30;0.80;;;3.40;99.90;;;4.01;100.00;96201.63;4983472;28;21009;-90
2022/01/09 04:55:03;;;;;;;1.03;0.90;;;3.50;99.90;;;4.01;100.00;96201.63;4995369;28;20461;-90
2022/01/09 04:57:33;;;;;;;1.20;0.80;;;3.50;99.90;;;4.00;100.00;96210.38;4985618;28;20525;-90
2022/01/09 05:00:04;;;;;;;1.83;0.80;;;3.50;99.90;;;4.00;100.00;96212.94;4991577;28;20581;-90
2022/01/09 05:02:36;;;;;;;1.03;0.90;;;3.40;99.90;;;3.99;100.00;96225.06;4996367;28;20554;-89
2022/01/09 05:05:09;;;;;;;6.03;1.37;;;3.40;99.90;;;4.00;100.00;96231.06;4990308;28;20469;-89
2022/01/09 05:07:41;;;;;;;2.73;1.30;;;3.40;99.90;;;4.04;100.00;96238.25;4981668;28;20520;-89
2022/01/09 05:10:13;;;;;;;4.00;1.27;;;3.40;99.90;;;4.00;100.00;96236.22;4984052;28;20897;-88
2022/01/09 05:12:43;;;;;;;2.57;1.33;;;3.50;99.90;;;4.02;100.00;96249.78;4986481;28;20541;-85
2022/01/09 05:15:16;;;;;;;51.50;21.13;;;3.50;99.90;;;4.03;100.00;96249.56;4983178;28;20516;-90
2022/01/09 05:17:47;;;;;;;6.77;2.47;;;3.50;99.90;;;4.04;100.00;96268.47;4983895;28;20467;-90
2022/01/09 05:20:17;;;;;;;4.33;1.50;;;3.50;99.90;;;4.09;100.00;96270.50;4990395;28;20494;-90
2022/01/09 05:22:49;;;;;;;3.30;1.43;;;3.50;99.90;;;4.10;100.00;96270.28;4984418;28;21037;-76
2022/01/09 05:25:18;;;;;;;10.67;5.50;;;3.60;99.90;;;4.07;100.00;96283.59;4986997;28;20580;-78
2022/01/09 05:27:49;;;;;;;5.10;1.53;;;3.50;99.90;;;4.12;100.00;96283.84;4987307;28;20493;-76
2022/01/09 05:30:19;;;;;;;4.40;1.50;;;3.60;99.90;;;4.13;100.00;96284.66;4979829;28;20468;-76
2022/01/09 05:32:50;;;;;;;6.70;1.40;;;3.70;99.90;;;4.16;100.00;96294.63;4981525;28;20476;-75
2022/01/09 05:35:22;;;;;;;4.57;2.23;;;3.70;99.90;;;4.17;100.00;96302.16;4995981;28;20482;-75
2022/01/09 05:37:55;;;;;;;6.90;1.70;;;3.70;99.90;;;4.19;100.00;96300.19;4976005;28;20521;-75
2022/01/09 05:40:26;;;;;;;8.97;2.47;;;3.70;99.90;;;4.19;100.00;96302.78;4988675;28;21010;-75
2022/01/09 05:42:58;;;;;;;12.73;2.63;;;3.70;99.90;;;4.19;100.00;96310.56;4990377;28;20466;-76
2022/01/09 05:45:27;;;;;;;12.23;2.07;;;3.70;99.90;;;4.18;100.00;96311.53;4987983;28;20498;-75
2022/01/09 05:47:59;;;;;;;8.43;2.00;;;3.70;99.90;;;4.19;100.00;96307.97;4988897;28;20830;-76
2022/01/09 05:50:58;;;;;;;5.23;2.30;;;3.70;99.90;;;4.24;100.00;96310.75;4987806;28;21003;-75
2022/01/09 05:53:29;;;;;;;8.30;1.93;;;3.80;99.90;;;4.25;100.00;96317.53;4988319;28;20537;-75
2022/01/09 05:56:00;;;;;;;9.93;2.70;;;3.70;99.90;;;4.27;100.00;96330.28;4985719;28;20463;-75
2022/01/09 05:58:30;;;;;;;7.53;1.80;;;3.80;99.90;;;4.29;100.00;96330.91;4979317;28;20474;-75
2022/01/09 06:00:59;;;;;;;7.50;1.90;;;3.70;99.90;;;4.29;100.00;96328.31;4985692;28;20549;-75
2022/01/09 06:03:30;;;;;;;6.10;2.00;;;3.80;99.90;;;4.29;100.00;96336.06;4983853;28;20530;-75
2022/01/09 06:06:00;;;;;;;6.00;1.80;;;3.70;99.90;;;4.27;100.00;96351.75;4979015;28;20485;-75
2022/01/09 06:08:31;;;;;;;6.33;1.60;;;3.70;99.90;;;4.26;100.00;96350.19;4993385;28;20463;-76
2022/01/09 06:11:02;;;;;;;30.70;9.70;;;3.70;99.90;;;4.28;100.00;96347.41;4982537;28;20497;-80
2022/01/09 06:13:33;;;;;;;13.73;2.40;;;3.80;99.90;;;4.31;100.00;96357.38;4982180;28;20473;-75
2022/01/09 06:16:05;;;;;;;4.37;1.87;;;3.80;99.90;;;4.34;100.00;96362.19;4984012;28;20473;-75
2022/01/09 06:21:30;;;;;;;7.50;1.83;;;3.80;99.90;;;4.37;100.00;96383.28;4972930;28;20496;-75
2022/01/09 06:24:24;;;;;;;8.03;2.10;;;3.90;99.90;;;4.39;100.00;96386.50;4979127;28;20474;-76
2022/01/09 06:26:54;;;;;;;6.57;2.10;;;3.90;99.90;;;4.36;100.00;96386.88;4982666;28;20564;-75
2022/01/09 06:29:30;;;;;;;5.13;1.87;;;3.80;99.90;;;4.37;100.00;96403.97;4982355;28;20900;-75
2022/01/09 06:32:28;;;;;;;6.20;2.27;;;3.90;99.90;;;4.40;100.00;96408.00;4981596;28;20465;-76
2022/01/09 06:35:14;;;;;;;9.50;1.63;;;3.90;99.90;;;4.40;100.00;96411.38;4984043;28;20465;-76
2022/01/09 06:37:55;;;;;;;11.20;1.80;;;3.90;99.90;;;4.36;100.00;96419.69;4982519;28;20471;-76
2022/01/09 06:40:45;;;;;;;5.43;1.87;;;3.80;99.90;;;4.36;100.00;96423.09;4976857;28;20612;-76
2022/01/09 06:43:21;;;;;;;179.57;82.63;;;3.90;99.90;;;4.33;100.00;96439.00;4981428;28;20986;-79
2022/01/09 06:45:56;;;;;;;16.73;5.67;;;3.90;99.90;;;4.32;100.00;96431.41;4989605;28;20794;-75
2022/01/09 06:48:36;;;;;;;8.03;1.77;;;3.80;99.90;;;4.36;100.00;96432.63;4986995;28;20525;-75
2022/01/09 06:51:22;;;;;;;3.73;1.63;;;3.90;99.90;;;4.30;100.00;96449.72;4984253;28;20473;-75
2022/01/09 06:53:50;;;;;;;4.50;1.70;;;3.90;99.90;;;4.27;100.00;96444.13;4977138;28;20522;-75
2022/01/09 06:56:29;;;;;;;4.63;1.40;;;3.80;99.90;;;4.27;100.00;96449.28;4981673;28;20557;-75
2022/01/09 06:59:00;;;;;;;3.63;1.33;;;3.90;99.90;;;4.23;100.00;96451.44;4985491;28;20484;-75
2022/01/09 07:01:30;;;;;;;2.63;1.20;;;3.80;99.90;;;4.22;100.00;96462.78;4987122;28;20490;-75
2022/01/09 07:04:01;;;;;;;2.93;1.50;;;3.80;99.90;;;4.25;100.00;96466.78;4986998;28;20490;-75
2022/01/09 07:06:34;;;;;;;1.97;1.10;;;3.80;99.90;;;4.27;100.00;96475.16;4985780;28;21121;-75
2022/01/09 07:09:32;;;;;;;4.50;1.50;;;3.80;99.90;;;4.27;100.00;96486.28;4991261;28;20471;-75
2022/01/09 07:12:12;;;;;;;2.20;1.10;;;3.80;99.90;;;4.28;100.00;96489.69;4985345;28;20487;-75
2022/01/09 07:14:44;;;;;;;2.07;1.43;;;3.80;99.90;;;4.26;100.00;96487.28;4990319;28;20985;-76
2022/01/09 07:17:40;;;;;;;3.90;1.27;;;3.70;99.90;;;4.28;100.00;96498.25;4958391;28;20478;-76
2022/01/09 07:20:13;;;;;;;2.30;0.93;;;3.80;99.90;;;4.29;100.00;96488.69;5014026;28;20473;-76
2022/01/09 07:22:47;;;;;;;4.60;1.40;;;3.80;99.90;;;4.23;100.00;96499.78;5007174;28;20624;-80
2022/01/09 07:25:23;;;;;;;2.77;1.50;;;3.70;99.90;;;4.25;100.00;96502.97;4997902;28;20644;-75
2022/01/09 07:28:03;;;;;;;11.13;1.23;;;3.80;99.90;;;4.19;100.00;96514.88;5010734;28;20513;-76
2022/01/09 07:30:36;;;;;;;5.93;1.60;;;3.70;99.90;;;4.19;100.00;96514.88;5007127;28;21036;-76
2022/01/09 07:33:11;;;;;;;4.07;1.40;;;3.80;99.90;;;4.17;100.00;96516.84;5005510;28;20473;-75
2022/01/09 07:35:50;;;;;;;7.63;1.10;;;3.70;99.90;;;4.20;100.00;96515.69;5009104;28;20490;-75
2022/01/09 07:38:42;;;;;;;4.40;1.07;;;3.70;99.90;;;4.17;100.00;96521.22;5009532;28;20544;-75
2022/01/09 07:41:18;;;;;;;4.53;1.37;;;3.70;99.90;;;4.18;100.00;96528.78;5009109;28;20515;-76
2022/01/09 07:43:56;;;;;;;9.40;1.50;;;3.70;99.90;;;4.17;100.00;96537.53;5007877;28;20559;-75
2022/01/09 07:46:26;;;;;;;4.70;1.30;;;3.80;99.90;;;4.18;100.00;96544.31;5000592;28;20461;-75
2022/01/09 07:49:07;;;;;;;4.63;1.13;;;3.70;99.90;;;4.18;100.00;96540.94;4996682;28;20986;-75
2022/01/09 07:51:38;;;;;;;5.70;1.80;;;3.70;99.90;;;4.15;100.00;96544.69;5004354;28;20477;-76
2022/01/09 07:54:25;;;;;;;4.70;1.40;;;3.70;99.90;;;4.13;100.00;96543.28;5006816;28;20523;-75
2022/01/09 07:56:55;;;;;;;6.00;1.67;;;3.60;99.90;;;4.12;100.00;96552.81;5014756;28;20477;-75
2022/01/09 07:59:27;;;;;;;4.70;1.63;;;3.60;99.90;;;4.06;100.00;96561.31;5005032;28;20719;-76
2022/01/09 08:01:57;;;;;;;1.83;1.33;;;3.60;99.90;;;4.03;100.00;96564.25;4998005;28;20596;-76
2022/01/09 08:04:27;;;;;;;22.00;9.70;;;3.50;99.90;;;4.04;100.00;96565.84;5006416;28;20551;-75
2022/01/09 08:06:58;;;;;;;3.70;1.20;;;3.60;99.90;;;4.05;100.00;96576.03;5000280;28;20496;-76
2022/01/09 08:17:37;;;;;;;5.10;1.80;;;3.70;99.90;;;4.16;100.00;96598.03;4921066;29;20996;-75
2022/01/09 08:20:10;;;;;;;5.70;1.80;;;3.70;99.90;;;4.18;100.00;96597.81;4924267;29;20536;-75
2022/01/09 08:22:41;;;;;;;11.80;1.93;;;3.70;99.90;;;4.14;100.00;96610.31;4929002;29;20505;-76
2022/01/09 08:25:13;;;;;;;9.70;3.00;;;3.70;99.90;;;4.16;100.00;96613.53;4920550;29;20560;-77
2022/01/09 08:27:43;;;;;;;8.23;1.80;;;3.70;99.90;;;4.17;100.00;96614.31;4927104;29;20564;-76
2022/01/09 08:30:14;;;;;;;7.67;2.13;;;3.70;99.90;;;4.15;100.00;96624.88;4930611;29;20472;-76
2022/01/09 08:32:45;;;;;;;9.67;2.10;;;3.60;99.90;;;4.20;100.00;96629.50;4933789;29;20539;-76
2022/01/09 08:35:15;;;;;;;5.83;1.67;;;3.70;99.90;;;4.20;100.00;96635.44;4935332;29;20464;-76
2022/01/09 08:37:45;;;;;;;2.97;1.67;;;3.80;99.90;;;4.23;100.00;96624.78;4929956;29;20447;-76
2022/01/09 08:40:19;;;;;;;3.37;1.23;;;3.80;99.90;;;4.23;100.00;96644.66;4934615;29;20553;-76
2022/01/09 08:42:49;;;;;;;14.07;2.03;;;3.70;99.90;;;4.17;100.00;96645.34;4930911;29;20503;-75
2022/01/09 08:45:19;;;;;;;6.00;1.80;;;3.70;99.90;;;4.16;100.00;96643.78;4929831;29;20454;-76
2022/01/09 08:47:51;;;;;;;5.80;2.07;;;3.60;99.90;;;4.18;100.00;96652.16;4925182;29;20479;-76
2022/01/09 08:50:23;;;;;;;4.00;1.50;;;3.70;99.90;;;4.10;100.00;96647.06;4932220;29;20531;-76
2022/01/09 08:52:52;;;;;;;5.33;1.57;;;3.60;99.90;;;4.17;100.00;96655.72;4928704;29;20529;-76
2022/01/09 08:55:28;;;;;;;4.63;1.83;;;3.70;99.90;;;4.10;100.00;96657.41;4938166;29;20939;-76
2022/01/09 08:57:58;;;;;;;4.80;2.20;;;3.60;99.90;;;4.15;100.00;96657.69;4933996;29;20470;-76
2022/01/09 09:00:28;;;;;;;6.63;1.90;;;3.70;99.90;;;4.13;100.00;96660.44;4931772;29;20476;-76
2022/01/09 09:02:58;;;;;;;6.87;1.93;;;3.70;99.90;;;4.04;100.00;96661.53;4923244;29;21289;-76
2022/01/09 09:05:33;;;;;;;20.83;2.53;;;3.60;99.90;;;4.01;100.00;96656.72;4927416;29;20473;-75
2022/01/09 09:08:10;;;;;;;1.47;1.37;;;3.50;99.90;;;4.01;100.00;96665.28;4930657;29;20467;-76
2022/01/09 09:10:42;;;;;;;6.00;1.63;;;3.50;99.90;;;4.02;100.00;96663.50;4927092;29;20879;-76
2022/01/09 09:13:21;;;;;;;2.90;1.50;;;3.50;99.90;;;4.02;100.00;96672.06;4926844;29;20558;-76
2022/01/09 09:15:51;;;;;;;14.43;2.53;;;3.50;99.90;;;4.06;100.00;96682.88;4925014;29;20489;-76
2022/01/09 09:18:23;;;;;;;4.83;1.90;;;3.50;99.90;;;4.05;100.00;96682.06;4924852;29;20512;-76
2022/01/09 09:20:56;;;;;;;3.97;1.43;;;3.50;99.90;;;4.12;100.00;96689.09;4926814;29;20913;-77
2022/01/09 09:23:27;;;;;;;4.00;1.40;;;3.60;99.90;;;4.14;100.00;96703.44;4921991;29;20495;-77
2022/01/09 09:26:01;;;;;;;4.20;1.50;;;3.60;99.90;;;4.13;100.00;96699.25;4926901;29;20558;-76
2022/01/09 09:28:32;;;;;;;9.17;2.33;;;3.60;99.90;;;4.14;100.00;96711.19;4921002;29;20474;-76
2022/01/09 09:31:12;;;;;;;4.10;1.67;;;3.60;99.90;;;4.15;100.00;96715.41;4922783;29;20483;-76
2022/01/09 09:33:46;;;;;;;10.30;2.70;;;3.60;99.90;;;4.16;100.00;96711.84;4923616;29;20464;-76
2022/01/09 09:36:16;;;;;;;6.00;1.70;;;3.70;99.90;;;4.19;100.00;96714.06;4923853;29;20470;-77
2022/01/09 09:38:47;;;;;;;10.90;4.20;;;3.70;99.90;;;4.19;100.00;96716.66;4929243;29;20563;-79
2022/01/09 09:41:22;;;;;;;6.10;2.20;;;3.70;99.90;;;4.19;100.00;96715.84;4930796;29;20494;-76
2022/01/09 09:43:52;;;;;;;5.13;1.60;;;3.60;99.90;;;4.23;100.00;96717.91;4927267;29;20471;-77
2022/01/09 09:46:23;;;;;;;3.33;1.20;;;3.70;99.90;;;4.26;100.00;96724.50;4922833;29;20968;-76
2022/01/09 09:48:56;;;;;;;6.60;1.80;;;3.80;99.90;;;4.26;100.00;96733.06;4929523;29;20466;-76
2022/01/09 09:51:28;;;;;;;6.23;1.40;;;3.80;99.90;;;4.26;100.00;96733.06;4927521;29;20473;-76
2022/01/09 09:54:01;;;;;;;6.80;1.97;;;3.70;99.90;;;4.28;100.00;96725.91;4929116;29;20867;-75
2022/01/09 09:56:32;;;;;;;4.20;1.60;;;3.80;99.90;;;4.32;100.00;96736.69;4921716;29;21168;-76
2022/01/09 09:59:04;;;;;;;3.07;1.67;;;3.80;99.90;;;4.33;100.00;96739.13;4928593;29;21014;-76
2022/01/09 10:01:38;;;;;;;7.47;2.00;;;3.80;99.90;;;4.36;100.00;96753.47;4930741;29;20535;-77
2022/01/09 10:04:11;;;;;;;3.43;1.30;;;3.90;99.90;;;4.38;100.00;96752.31;4924872;29;20837;-76
2022/01/09 10:06:45;;;;;;;4.10;1.60;;;3.80;99.90;;;4.42;100.00;96750.97;4926191;29;21002;-76
2022/01/09 10:09:18;;;;;;;4.43;2.10;;;3.90;99.90;;;4.45;100.00;96752.38;4924013;29;20490;-76
2022/01/09 10:11:52;;;;;;;9.47;2.60;;;4.00;99.90;;;4.46;100.00;96749.63;4927614;29;20478;-76
2022/01/09 10:14:24;;;;;;;3.87;1.53;;;3.90;99.90;;;4.46;100.00;96751.41;4928836;29;20469;-76
2022/01/09 10:17:33;;;;;;;4.50;1.30;;;4.00;99.90;;;4.47;100.00;96747.84;4928290;29;20497;-76
2022/01/09 10:20:13;;;;;;;2.70;1.50;;;3.90;99.90;;;4.52;100.00;96750.66;4926678;29;20481;-76
2022/01/09 10:22:46;;;;;;;4.30;1.50;;;3.90;99.90;;;4.54;100.00;96759.88;4924664;29;20516;-76
2022/01/09 10:25:47;;;;;;;5.20;1.80;;;4.00;99.90;;;4.60;100.00;96755.75;4926055;29;20465;-76
2022/01/09 10:28:18;;;;;;;5.70;1.83;;;4.10;99.90;;;4.63;100.00;96752.81;4924136;29;20544;-77
2022/01/09 10:30:51;;;;;;;5.00;1.50;;;4.20;99.90;;;4.64;100.00;96764.78;4925849;29;20481;-76
2022/01/09 10:33:23;;;;;;;5.00;1.60;;;4.20;99.90;;;4.68;100.00;96762.63;4928752;29;20559;-77
2022/01/09 10:35:55;;;;;;;6.90;1.60;;;4.20;99.90;;;4.69;100.00;96766.78;4941675;29;20454;-76
2022/01/09 10:38:31;;;;;;;9.97;2.37;;;4.20;99.90;;;4.63;100.00;96764.94;4931369;28;20465;-76
2022/01/09 10:41:04;;;;;;;5.90;1.73;;;4.10;99.90;;;4.68;100.00;96772.97;4931808;29;20467;-77
2022/01/09 10:43:37;;;;;;;57.83;24.87;;;4.20;99.90;;;4.65;100.00;96766.34;4928704;28;20508;-78
2022/01/09 10:46:09;;;;;;;24.30;6.60;;;4.20;99.90;;;4.67;100.00;96776.53;4927366;29;20465;-76
2022/01/09 10:48:42;;;;;;;6.03;2.03;;;4.20;99.90;;;4.67;100.00;96779.13;4929963;29;20525;-76
2022/01/09 10:51:17;;;;;;;4.10;1.80;;;4.20;99.90;;;4.68;100.00;96778.16;4922159;29;20530;-77
2022/01/09 10:53:46;;;;;;;4.30;1.60;;;4.20;99.90;;;4.70;100.00;96771.81;4921356;29;20485;-76
2022/01/09 10:56:24;;;;;;;8.40;1.93;;;4.20;99.90;;;4.74;100.00;96777.41;4926273;29;20470;-76
2022/01/09 10:58:56;;;;;;;8.33;1.97;;;4.30;99.90;;;4.76;100.00;96783.22;4936032;29;20472;-80
2022/01/09 11:01:27;;;;;;;5.70;2.60;;;4.30;99.90;;;4.79;100.00;96786.22;4929560;29;20480;-77